sensor_id;sensor_type;location;lat;lon;timestamp;temperature;humidity
39503;DHT22;26970;49.900;10.774;2023-04-08T00:02:20;5.60;99.90
39503;DHT22;26970;49.900;10.774;2023-04-08T00:04:46;5.50;99.90
39503;DHT22;26970;49.900;10.774;2023-04-08T00:07:11;5.50;99.90
39503;DHT22;26970;49.900;10.774;2023-04-08T00:09:37;5.50;99.90
39503;DHT22;26970;49.900;10.774;2023-04-08T00:12:03;5.40;99.90
39503;DHT22;26970;49.900;10.774;2023-04-08T00:14:29;5.40;99.90
39503;DHT22;26970;49.900;10.774;2023-04-08T00:16:54;5.40;99.90
39503;DHT22;26970;49.900;10.774;2023-04-08T00:19:20;5.30;99.90
39503;DHT22;26970;49.900;10.774;2023-04-08T00:21:46;5.30;99.90
39503;DHT22;26970;49.900;10.774;2023-04-08T00:24:12;5.30;99.90
39503;DHT22;26970;49.900;10.774;2023-04-08T00:26:38;5.30;99.90
39503;DHT22;26970;49.900;10.774;2023-04-08T00:29:03;5.40;99.90
39503;DHT22;26970;49.900;10.774;2023-04-08T00:31:29;5.40;99.90
39503;DHT22;26970;49.900;10.774;2023-04-08T00:33:55;5.40;99.90
39503;DHT22;26970;49.900;10.774;2023-04-08T00:36:21;5.40;99.90
39503;DHT22;26970;49.900;10.774;2023-04-08T00:38:47;5.30;99.90
39503;DHT22;26970;49.900;10.774;2023-04-08T00:41:12;5.30;99.90
39503;DHT22;26970;49.900;10.774;2023-04-08T00:43:38;5.30;99.90
39503;DHT22;26970;49.900;10.774;2023-04-08T00:46:04;5.30;99.90
39503;DHT22;26970;49.900;10.774;2023-04-08T00:48:30;5.30;99.90
39503;DHT22;26970;49.900;10.774;2023-04-08T00:50:57;5.40;99.90
39503;DHT22;26970;49.900;10.774;2023-04-08T00:53:22;5.30;99.90
39503;DHT22;26970;49.900;10.774;2023-04-08T00:55:48;5.30;99.90
39503;DHT22;26970;49.900;10.774;2023-04-08T00:58:14;5.40;99.90
39503;DHT22;26970;49.900;10.774;2023-04-08T01:00:45;5.40;99.90
39503;DHT22;26970;49.900;10.774;2023-04-08T01:09:32;5.40;99.90
39503;DHT22;26970;49.900;10.774;2023-04-08T01:12:04;5.30;99.90
39503;DHT22;26970;49.900;10.774;2023-04-08T01:14:33;5.30;99.90
39503;DHT22;26970;49.900;10.774;2023-04-08T01:17:01;5.40;99.90
39503;DHT22;26970;49.900;10.774;2023-04-08T01:19:30;5.40;99.90
39503;DHT22;26970;49.900;10.774;2023-04-08T01:22:04;5.40;99.90
39503;DHT22;26970;49.900;10.774;2023-04-08T01:24:38;5.30;99.90
39503;DHT22;26970;49.900;10.774;2023-04-08T01:27:06;5.30;99.90
39503;DHT22;26970;49.900;10.774;2023-04-08T01:29:33;5.30;99.90
39503;DHT22;26970;49.900;10.774;2023-04-08T01:31:59;5.30;99.90
39503;DHT22;26970;49.900;10.774;2023-04-08T01:34:27;5.30;99.90
39503;DHT22;26970;49.900;10.774;2023-04-08T01:36:54;5.30;99.90
39503;DHT22;26970;49.900;10.774;2023-04-08T01:39:20;5.30;99.90
39503;DHT22;26970;49.900;10.774;2023-04-08T01:41:47;5.30;99.90
39503;DHT22;26970;49.900;10.774;2023-04-08T01:44:16;5.30;99.90
39503;DHT22;26970;49.900;10.774;2023-04-08T01:46:43;5.20;99.90
39503;DHT22;26970;49.900;10.774;2023-04-08T01:49:08;5.20;99.90
39503;DHT22;26970;49.900;10.774;2023-04-08T01:51:36;5.20;99.90
39503;DHT22;26970;49.900;10.774;2023-04-08T01:54:02;5.20;99.90
39503;DHT22;26970;49.900;10.774;2023-04-08T01:56:30;5.20;99.90
39503;DHT22;26970;49.900;10.774;2023-04-08T01:58:58;5.20;99.90
39503;DHT22;26970;49.900;10.774;2023-04-08T02:01:26;5.20;99.90
39503;DHT22;26970;49.900;10.774;2023-04-08T02:03:54;5.20;99.90
39503;DHT22;26970;49.900;10.774;2023-04-08T02:06:22;5.20;99.90
39503;DHT22;26970;49.900;10.774;2023-04-08T02:08:48;5.20;99.90
39503;DHT22;26970;49.900;10.774;2023-04-08T02:11:13;5.20;99.90
39503;DHT22;26970;49.900;10.774;2023-04-08T02:13:39;5.30;99.90
39503;DHT22;26970;49.900;10.774;2023-04-08T02:19:07;5.30;99.90
39503;DHT22;26970;49.900;10.774;2023-04-08T02:21:43;5.20;99.90
39503;DHT22;26970;49.900;10.774;2023-04-08T02:24:12;5.20;99.90
39503;DHT22;26970;49.900;10.774;2023-04-08T02:26:38;5.10;99.90
39503;DHT22;26970;49.900;10.774;2023-04-08T02:29:05;5.10;99.90
39503;DHT22;26970;49.900;10.774;2023-04-08T02:31:33;5.10;99.90
39503;DHT22;26970;49.900;10.774;2023-04-08T02:33:59;5.10;99.90
39503;DHT22;26970;49.900;10.774;2023-04-08T02:36:25;5.10;99.90
39503;DHT22;26970;49.900;10.774;2023-04-08T02:38:51;5.10;99.90
39503;DHT22;26970;49.900;10.774;2023-04-08T02:41:17;5.00;99.90
39503;DHT22;26970;49.900;10.774;2023-04-08T02:43:42;5.10;99.90
39503;DHT22;26970;49.900;10.774;2023-04-08T02:46:09;5.10;99.90
39503;DHT22;26970;49.900;10.774;2023-04-08T02:48:35;5.10;99.90
39503;DHT22;26970;49.900;10.774;2023-04-08T02:51:01;5.00;99.90
39503;DHT22;26970;49.900;10.774;2023-04-08T02:53:26;5.00;99.90
39503;DHT22;26970;49.900;10.774;2023-04-08T02:55:52;5.00;99.90
39503;DHT22;26970;49.900;10.774;2023-04-08T02:58:18;5.00;99.90
39503;DHT22;26970;49.900;10.774;2023-04-08T03:00:43;5.00;99.90
39503;DHT22;26970;49.900;10.774;2023-04-08T03:03:09;4.90;99.90
39503;DHT22;26970;49.900;10.774;2023-04-08T03:05:34;4.80;99.90
39503;DHT22;26970;49.900;10.774;2023-04-08T03:08:00;4.70;99.90
39503;DHT22;26970;49.900;10.774;2023-04-08T03:10:26;4.70;99.90
39503;DHT22;26970;49.900;10.774;2023-04-08T03:12:51;4.60;99.90
39503;DHT22;26970;49.900;10.774;2023-04-08T03:15:17;4.60;99.90
39503;DHT22;26970;49.900;10.774;2023-04-08T03:17:42;4.50;99.90
39503;DHT22;26970;49.900;10.774;2023-04-08T03:20:08;4.40;99.90
39503;DHT22;26970;49.900;10.774;2023-04-08T03:22:35;4.40;99.90
39503;DHT22;26970;49.900;10.774;2023-04-08T03:25:01;4.40;99.90
39503;DHT22;26970;49.900;10.774;2023-04-08T03:27:27;4.30;99.90
39503;DHT22;26970;49.900;10.774;2023-04-08T03:29:53;4.30;99.90
39503;DHT22;26970;49.900;10.774;2023-04-08T03:32:18;4.20;99.90
39503;DHT22;26970;49.900;10.774;2023-04-08T03:34:44;4.20;99.90
39503;DHT22;26970;49.900;10.774;2023-04-08T03:37:10;4.20;99.90
39503;DHT22;26970;49.900;10.774;2023-04-08T03:39:36;4.20;99.90
39503;DHT22;26970;49.900;10.774;2023-04-08T03:42:02;4.20;99.90
39503;DHT22;26970;49.900;10.774;2023-04-08T03:44:28;4.20;99.90
39503;DHT22;26970;49.900;10.774;2023-04-08T03:46:53;4.30;99.90
39503;DHT22;26970;49.900;10.774;2023-04-08T03:49:19;4.30;99.90
39503;DHT22;26970;49.900;10.774;2023-04-08T03:51:45;4.30;99.90
39503;DHT22;26970;49.900;10.774;2023-04-08T03:54:10;4.30;99.90
39503;DHT22;26970;49.900;10.774;2023-04-08T03:56:36;4.30;99.90
39503;DHT22;26970;49.900;10.774;2023-04-08T03:59:02;4.30;99.90
39503;DHT22;26970;49.900;10.774;2023-04-08T04:01:27;4.30;99.90
39503;DHT22;26970;49.900;10.774;2023-04-08T04:03:54;4.30;99.90
39503;DHT22;26970;49.900;10.774;2023-04-08T04:06:20;4.20;99.90
39503;DHT22;26970;49.900;10.774;2023-04-08T04:08:45;4.30;99.90
39503;DHT22;26970;49.900;10.774;2023-04-08T04:11:11;4.30;99.90
39503;DHT22;26970;49.900;10.774;2023-04-08T04:13:37;4.30;99.90
39503;DHT22;26970;49.900;10.774;2023-04-08T04:16:02;4.30;99.90
39503;DHT22;26970;49.900;10.774;2023-04-08T04:18:28;4.40;99.90
39503;DHT22;26970;49.900;10.774;2023-04-08T04:20:53;4.40;99.90
39503;DHT22;26970;49.900;10.774;2023-04-08T04:23:19;4.40;99.90
39503;DHT22;26970;49.900;10.774;2023-04-08T04:25:45;4.40;99.90
39503;DHT22;26970;49.900;10.774;2023-04-08T04:28:11;4.40;99.90
39503;DHT22;26970;49.900;10.774;2023-04-08T04:30:40;4.30;99.90
39503;DHT22;26970;49.900;10.774;2023-04-08T04:33:06;4.30;99.90
39503;DHT22;26970;49.900;10.774;2023-04-08T04:35:32;4.20;99.90
39503;DHT22;26970;49.900;10.774;2023-04-08T04:37:58;4.30;99.90
39503;DHT22;26970;49.900;10.774;2023-04-08T04:40:23;4.20;99.90
39503;DHT22;26970;49.900;10.774;2023-04-08T04:42:49;4.20;99.90
39503;DHT22;26970;49.900;10.774;2023-04-08T04:45:15;4.20;99.90
39503;DHT22;26970;49.900;10.774;2023-04-08T04:47:40;4.20;99.90
39503;DHT22;26970;49.900;10.774;2023-04-08T04:50:06;4.20;99.90
39503;DHT22;26970;49.900;10.774;2023-04-08T04:52:32;4.20;99.90
39503;DHT22;26970;49.900;10.774;2023-04-08T04:54:57;4.20;99.90
39503;DHT22;26970;49.900;10.774;2023-04-08T04:57:23;4.20;99.90
39503;DHT22;26970;49.900;10.774;2023-04-08T04:59:49;4.20;99.90
39503;DHT22;26970;49.900;10.774;2023-04-08T05:02:14;4.20;99.90
39503;DHT22;26970;49.900;10.774;2023-04-08T05:04:40;4.20;99.90
39503;DHT22;26970;49.900;10.774;2023-04-08T05:07:06;4.30;99.90
39503;DHT22;26970;49.900;10.774;2023-04-08T05:09:31;4.20;99.90
39503;DHT22;26970;49.900;10.774;2023-04-08T05:11:57;4.20;99.90
39503;DHT22;26970;49.900;10.774;2023-04-08T05:14:23;4.20;99.90
39503;DHT22;26970;49.900;10.774;2023-04-08T05:16:48;4.10;99.90
39503;DHT22;26970;49.900;10.774;2023-04-08T05:19:14;4.10;99.90
39503;DHT22;26970;49.900;10.774;2023-04-08T05:21:39;4.20;99.90
39503;DHT22;26970;49.900;10.774;2023-04-08T05:24:05;4.20;99.90
39503;DHT22;26970;49.900;10.774;2023-04-08T05:26:31;4.20;99.90
39503;DHT22;26970;49.900;10.774;2023-04-08T05:28:57;4.20;99.90
39503;DHT22;26970;49.900;10.774;2023-04-08T05:31:23;4.10;99.90
39503;DHT22;26970;49.900;10.774;2023-04-08T05:33:48;4.10;99.90
39503;DHT22;26970;49.900;10.774;2023-04-08T05:36:14;4.20;99.90
39503;DHT22;26970;49.900;10.774;2023-04-08T05:38:40;4.20;99.90
39503;DHT22;26970;49.900;10.774;2023-04-08T05:41:07;4.20;99.90
39503;DHT22;26970;49.900;10.774;2023-04-08T05:43:33;4.20;99.90
39503;DHT22;26970;49.900;10.774;2023-04-08T05:45:59;4.10;99.90
39503;DHT22;26970;49.900;10.774;2023-04-08T05:48:24;4.10;99.90
39503;DHT22;26970;49.900;10.774;2023-04-08T05:50:50;4.10;99.90
39503;DHT22;26970;49.900;10.774;2023-04-08T05:53:16;4.10;99.90
39503;DHT22;26970;49.900;10.774;2023-04-08T05:55:41;4.10;99.90
39503;DHT22;26970;49.900;10.774;2023-04-08T05:58:07;4.10;99.90
39503;DHT22;26970;49.900;10.774;2023-04-08T06:00:32;4.10;99.90
39503;DHT22;26970;49.900;10.774;2023-04-08T06:02:58;4.10;99.90
39503;DHT22;26970;49.900;10.774;2023-04-08T06:05:24;4.10;99.90
39503;DHT22;26970;49.900;10.774;2023-04-08T06:07:50;4.10;99.90
39503;DHT22;26970;49.900;10.774;2023-04-08T06:10:15;4.10;99.90
39503;DHT22;26970;49.900;10.774;2023-04-08T06:12:41;4.00;99.90
39503;DHT22;26970;49.900;10.774;2023-04-08T06:15:07;4.00;99.90
39503;DHT22;26970;49.900;10.774;2023-04-08T06:17:35;4.00;99.90
39503;DHT22;26970;49.900;10.774;2023-04-08T06:20:01;4.00;99.90
39503;DHT22;26970;49.900;10.774;2023-04-08T06:22:28;4.10;99.90
39503;DHT22;26970;49.900;10.774;2023-04-08T06:24:54;4.10;99.90
39503;DHT22;26970;49.900;10.774;2023-04-08T06:27:19;4.10;99.90
39503;DHT22;26970;49.900;10.774;2023-04-08T06:29:45;4.10;99.90
39503;DHT22;26970;49.900;10.774;2023-04-08T06:32:12;4.10;99.90
39503;DHT22;26970;49.900;10.774;2023-04-08T06:34:38;4.10;99.90
39503;DHT22;26970;49.900;10.774;2023-04-08T06:37:03;4.20;99.90
39503;DHT22;26970;49.900;10.774;2023-04-08T06:39:30;4.10;99.90
39503;DHT22;26970;49.900;10.774;2023-04-08T06:41:56;4.20;99.90
39503;DHT22;26970;49.900;10.774;2023-04-08T06:44:22;4.20;99.90
39503;DHT22;26970;49.900;10.774;2023-04-08T06:46:48;4.20;99.90
39503;DHT22;26970;49.900;10.774;2023-04-08T06:49:13;4.20;99.90
39503;DHT22;26970;49.900;10.774;2023-04-08T06:51:39;4.20;99.90
39503;DHT22;26970;49.900;10.774;2023-04-08T06:54:05;4.20;99.90
39503;DHT22;26970;49.900;10.774;2023-04-08T06:56:30;4.30;99.90
39503;DHT22;26970;49.900;10.774;2023-04-08T06:58:56;4.10;99.90
39503;DHT22;26970;49.900;10.774;2023-04-08T07:01:22;4.10;99.90
39503;DHT22;26970;49.900;10.774;2023-04-08T07:03:48;4.10;99.90
39503;DHT22;26970;49.900;10.774;2023-04-08T07:06:13;4.10;99.90
39503;DHT22;26970;49.900;10.774;2023-04-08T07:08:39;4.10;99.90
39503;DHT22;26970;49.900;10.774;2023-04-08T07:11:04;4.10;99.90
39503;DHT22;26970;49.900;10.774;2023-04-08T07:13:31;4.20;99.90
39503;DHT22;26970;49.900;10.774;2023-04-08T07:15:56;4.30;99.90
39503;DHT22;26970;49.900;10.774;2023-04-08T07:18:22;4.30;99.90
39503;DHT22;26970;49.900;10.774;2023-04-08T07:20:51;4.30;99.90
39503;DHT22;26970;49.900;10.774;2023-04-08T07:23:18;4.40;99.90
39503;DHT22;26970;49.900;10.774;2023-04-08T07:25:45;4.30;99.90
39503;DHT22;26970;49.900;10.774;2023-04-08T07:28:11;4.40;99.90
39503;DHT22;26970;49.900;10.774;2023-04-08T07:30:36;4.40;99.90
39503;DHT22;26970;49.900;10.774;2023-04-08T07:33:02;4.40;99.90
39503;DHT22;26970;49.900;10.774;2023-04-08T07:35:28;4.40;99.90
39503;DHT22;26970;49.900;10.774;2023-04-08T07:37:54;4.50;99.90
39503;DHT22;26970;49.900;10.774;2023-04-08T07:40:19;4.50;99.90
39503;DHT22;26970;49.900;10.774;2023-04-08T07:42:45;4.60;99.90
39503;DHT22;26970;49.900;10.774;2023-04-08T07:45:11;4.50;99.90
39503;DHT22;26970;49.900;10.774;2023-04-08T07:47:36;4.60;99.90
39503;DHT22;26970;49.900;10.774;2023-04-08T07:50:03;4.50;99.90
39503;DHT22;26970;49.900;10.774;2023-04-08T07:52:31;4.60;99.90
39503;DHT22;26970;49.900;10.774;2023-04-08T07:54:57;4.60;99.90
39503;DHT22;26970;49.900;10.774;2023-04-08T07:57:22;4.70;99.90
39503;DHT22;26970;49.900;10.774;2023-04-08T07:59:48;4.70;99.90
39503;DHT22;26970;49.900;10.774;2023-04-08T08:02:13;4.80;99.90
39503;DHT22;26970;49.900;10.774;2023-04-08T08:04:39;4.80;99.90
39503;DHT22;26970;49.900;10.774;2023-04-08T08:07:04;4.90;99.90
39503;DHT22;26970;49.900;10.774;2023-04-08T08:09:30;4.90;99.90
39503;DHT22;26970;49.900;10.774;2023-04-08T08:11:56;4.90;99.90
39503;DHT22;26970;49.900;10.774;2023-04-08T08:14:21;4.80;99.90
39503;DHT22;26970;49.900;10.774;2023-04-08T08:16:47;4.90;99.90
39503;DHT22;26970;49.900;10.774;2023-04-08T08:19:14;4.90;99.90
39503;DHT22;26970;49.900;10.774;2023-04-08T08:21:39;4.90;99.90
39503;DHT22;26970;49.900;10.774;2023-04-08T08:24:05;5.00;99.90
39503;DHT22;26970;49.900;10.774;2023-04-08T08:26:33;5.00;99.90
39503;DHT22;26970;49.900;10.774;2023-04-08T08:28:59;5.00;99.90
39503;DHT22;26970;49.900;10.774;2023-04-08T08:31:25;5.00;99.90
39503;DHT22;26970;49.900;10.774;2023-04-08T08:33:51;5.10;99.90
39503;DHT22;26970;49.900;10.774;2023-04-08T08:36:16;5.10;99.90
39503;DHT22;26970;49.900;10.774;2023-04-08T08:38:42;5.30;99.90
39503;DHT22;26970;49.900;10.774;2023-04-08T08:41:07;5.40;99.90
39503;DHT22;26970;49.900;10.774;2023-04-08T08:43:33;5.40;99.90
39503;DHT22;26970;49.900;10.774;2023-04-08T08:45:59;5.40;99.90
39503;DHT22;26970;49.900;10.774;2023-04-08T08:48:26;5.40;99.90
39503;DHT22;26970;49.900;10.774;2023-04-08T08:50:52;5.50;99.90
39503;DHT22;26970;49.900;10.774;2023-04-08T08:53:18;5.50;99.90
39503;DHT22;26970;49.900;10.774;2023-04-08T08:55:47;5.50;99.90
39503;DHT22;26970;49.900;10.774;2023-04-08T08:58:14;5.50;99.90
39503;DHT22;26970;49.900;10.774;2023-04-08T09:00:40;5.50;99.90
39503;DHT22;26970;49.900;10.774;2023-04-08T09:03:35;5.60;99.90
39503;DHT22;26970;49.900;10.774;2023-04-08T09:06:01;5.70;99.90
39503;DHT22;26970;49.900;10.774;2023-04-08T09:08:33;5.70;99.90
39503;DHT22;26970;49.900;10.774;2023-04-08T09:11:15;5.80;99.90
39503;DHT22;26970;49.900;10.774;2023-04-08T09:13:40;5.80;99.90
39503;DHT22;26970;49.900;10.774;2023-04-08T09:16:11;5.80;99.90
39503;DHT22;26970;49.900;10.774;2023-04-08T09:18:37;5.80;99.90
39503;DHT22;26970;49.900;10.774;2023-04-08T09:21:05;5.80;99.90
39503;DHT22;26970;49.900;10.774;2023-04-08T09:26:23;6.10;99.90
39503;DHT22;26970;49.900;10.774;2023-04-08T09:31:28;6.20;99.90
39503;DHT22;26970;49.900;10.774;2023-04-08T09:33:58;6.20;99.90
39503;DHT22;26970;49.900;10.774;2023-04-08T09:36:25;6.20;99.90
39503;DHT22;26970;49.900;10.774;2023-04-08T09:38:52;6.30;99.90
39503;DHT22;26970;49.900;10.774;2023-04-08T09:41:19;6.40;99.90
39503;DHT22;26970;49.900;10.774;2023-04-08T09:43:50;6.40;99.90
39503;DHT22;26970;49.900;10.774;2023-04-08T09:49:05;6.50;99.90
39503;DHT22;26970;49.900;10.774;2023-04-08T09:51:44;6.60;99.90
39503;DHT22;26970;49.900;10.774;2023-04-08T09:54:14;6.60;99.90
39503;DHT22;26970;49.900;10.774;2023-04-08T09:56:48;6.70;99.90
39503;DHT22;26970;49.900;10.774;2023-04-08T09:59:16;6.80;99.90
39503;DHT22;26970;49.900;10.774;2023-04-08T10:01:50;6.80;99.90
39503;DHT22;26970;49.900;10.774;2023-04-08T10:04:19;6.80;99.90
39503;DHT22;26970;49.900;10.774;2023-04-08T10:06:53;6.80;99.90
39503;DHT22;26970;49.900;10.774;2023-04-08T10:09:22;6.90;99.90
39503;DHT22;26970;49.900;10.774;2023-04-08T10:11:49;6.80;99.90
39503;DHT22;26970;49.900;10.774;2023-04-08T10:14:15;6.80;99.90
39503;DHT22;26970;49.900;10.774;2023-04-08T10:16:40;6.70;99.90
39503;DHT22;26970;49.900;10.774;2023-04-08T10:19:37;6.80;99.90
39503;DHT22;26970;49.900;10.774;2023-04-08T10:27:44;7.00;99.90
39503;DHT22;26970;49.900;10.774;2023-04-08T10:32:56;7.10;99.90
39503;DHT22;26970;49.900;10.774;2023-04-08T10:35:37;7.20;99.90
39503;DHT22;26970;49.900;10.774;2023-04-08T10:38:06;7.00;99.90
39503;DHT22;26970;49.900;10.774;2023-04-08T10:40:36;7.00;99.90
39503;DHT22;26970;49.900;10.774;2023-04-08T10:43:03;7.00;99.90
39503;DHT22;26970;49.900;10.774;2023-04-08T10:45:29;7.00;99.90
39503;DHT22;26970;49.900;10.774;2023-04-08T10:47:55;7.10;99.90
39503;DHT22;26970;49.900;10.774;2023-04-08T10:50:21;7.20;99.90
39503;DHT22;26970;49.900;10.774;2023-04-08T10:52:51;7.40;99.90
39503;DHT22;26970;49.900;10.774;2023-04-08T10:55:35;7.40;99.90
39503;DHT22;26970;49.900;10.774;2023-04-08T10:58:05;7.30;99.90
39503;DHT22;26970;49.900;10.774;2023-04-08T11:00:36;7.30;99.90
39503;DHT22;26970;49.900;10.774;2023-04-08T11:03:09;7.40;99.90
39503;DHT22;26970;49.900;10.774;2023-04-08T11:05:38;7.40;99.90
39503;DHT22;26970;49.900;10.774;2023-04-08T11:08:04;7.40;99.90
39503;DHT22;26970;49.900;10.774;2023-04-08T11:10:32;7.50;99.90
39503;DHT22;26970;49.900;10.774;2023-04-08T11:13:00;7.70;99.90
39503;DHT22;26970;49.900;10.774;2023-04-08T11:15:29;7.70;99.90
39503;DHT22;26970;49.900;10.774;2023-04-08T11:17:54;7.70;99.90
39503;DHT22;26970;49.900;10.774;2023-04-08T11:20:21;7.90;99.90
39503;DHT22;26970;49.900;10.774;2023-04-08T11:22:47;7.90;99.90
39503;DHT22;26970;49.900;10.774;2023-04-08T11:25:13;8.00;99.90
39503;DHT22;26970;49.900;10.774;2023-04-08T11:27:39;8.00;99.90
39503;DHT22;26970;49.900;10.774;2023-04-08T11:30:06;7.90;99.90
39503;DHT22;26970;49.900;10.774;2023-04-08T11:32:34;7.90;99.90
39503;DHT22;26970;49.900;10.774;2023-04-08T11:35:00;8.00;99.90
39503;DHT22;26970;49.900;10.774;2023-04-08T11:37:38;8.10;99.90
39503;DHT22;26970;49.900;10.774;2023-04-08T11:40:09;8.30;99.90
39503;DHT22;26970;49.900;10.774;2023-04-08T11:42:35;8.30;99.90
39503;DHT22;26970;49.900;10.774;2023-04-08T11:45:09;8.30;99.90
39503;DHT22;26970;49.900;10.774;2023-04-08T11:47:35;8.40;99.90
39503;DHT22;26970;49.900;10.774;2023-04-08T11:50:01;8.60;99.90
39503;DHT22;26970;49.900;10.774;2023-04-08T11:55:10;8.70;99.90
39503;DHT22;26970;49.900;10.774;2023-04-08T11:57:37;8.80;99.90
39503;DHT22;26970;49.900;10.774;2023-04-08T12:00:07;8.70;99.90
39503;DHT22;26970;49.900;10.774;2023-04-08T12:02:33;8.80;99.90
39503;DHT22;26970;49.900;10.774;2023-04-08T12:04:59;8.80;99.90
39503;DHT22;26970;49.900;10.774;2023-04-08T12:07:25;8.70;99.90
39503;DHT22;26970;49.900;10.774;2023-04-08T12:09:51;8.70;99.90
39503;DHT22;26970;49.900;10.774;2023-04-08T12:12:17;8.70;99.90
39503;DHT22;26970;49.900;10.774;2023-04-08T12:14:42;8.90;99.90
39503;DHT22;26970;49.900;10.774;2023-04-08T12:17:08;9.10;99.90
39503;DHT22;26970;49.900;10.774;2023-04-08T12:19:33;8.90;99.90
39503;DHT22;26970;49.900;10.774;2023-04-08T12:21:59;8.80;99.90
39503;DHT22;26970;49.900;10.774;2023-04-08T12:24:24;8.60;99.90
39503;DHT22;26970;49.900;10.774;2023-04-08T12:26:51;8.50;99.90
39503;DHT22;26970;49.900;10.774;2023-04-08T12:29:16;8.50;99.90
39503;DHT22;26970;49.900;10.774;2023-04-08T12:31:42;8.40;99.90
39503;DHT22;26970;49.900;10.774;2023-04-08T12:34:07;8.40;99.90
39503;DHT22;26970;49.900;10.774;2023-04-08T12:36:33;8.30;99.90
39503;DHT22;26970;49.900;10.774;2023-04-08T12:38:58;8.30;99.90
39503;DHT22;26970;49.900;10.774;2023-04-08T12:41:24;8.20;99.90
39503;DHT22;26970;49.900;10.774;2023-04-08T12:43:49;8.10;99.90
39503;DHT22;26970;49.900;10.774;2023-04-08T12:46:15;8.10;99.90
39503;DHT22;26970;49.900;10.774;2023-04-08T12:48:41;8.20;99.90
39503;DHT22;26970;49.900;10.774;2023-04-08T12:51:09;8.40;99.90
39503;DHT22;26970;49.900;10.774;2023-04-08T12:53:34;8.50;99.90
39503;DHT22;26970;49.900;10.774;2023-04-08T12:56:00;8.50;99.90
39503;DHT22;26970;49.900;10.774;2023-04-08T12:58:26;8.40;99.90
39503;DHT22;26970;49.900;10.774;2023-04-08T13:00:51;8.60;99.90
39503;DHT22;26970;49.900;10.774;2023-04-08T13:03:17;8.70;99.90
39503;DHT22;26970;49.900;10.774;2023-04-08T13:05:43;9.10;99.90
39503;DHT22;26970;49.900;10.774;2023-04-08T13:08:09;9.20;99.90
39503;DHT22;26970;49.900;10.774;2023-04-08T13:10:36;9.20;99.90
39503;DHT22;26970;49.900;10.774;2023-04-08T13:13:02;9.00;99.90
39503;DHT22;26970;49.900;10.774;2023-04-08T13:15:27;8.90;99.90
39503;DHT22;26970;49.900;10.774;2023-04-08T13:17:53;8.70;99.90
39503;DHT22;26970;49.900;10.774;2023-04-08T13:20:18;8.60;99.90
39503;DHT22;26970;49.900;10.774;2023-04-08T13:22:44;8.50;99.90
39503;DHT22;26970;49.900;10.774;2023-04-08T13:25:10;8.40;99.90
39503;DHT22;26970;49.900;10.774;2023-04-08T13:27:36;8.30;99.90
39503;DHT22;26970;49.900;10.774;2023-04-08T13:30:01;8.30;99.90
39503;DHT22;26970;49.900;10.774;2023-04-08T13:32:27;8.30;99.90
39503;DHT22;26970;49.900;10.774;2023-04-08T13:34:53;8.30;99.90
39503;DHT22;26970;49.900;10.774;2023-04-08T13:37:18;8.50;99.90
39503;DHT22;26970;49.900;10.774;2023-04-08T13:39:44;8.50;99.90
39503;DHT22;26970;49.900;10.774;2023-04-08T13:42:10;8.50;99.90
39503;DHT22;26970;49.900;10.774;2023-04-08T13:44:35;8.50;99.90
39503;DHT22;26970;49.900;10.774;2023-04-08T13:47:01;8.50;99.90
39503;DHT22;26970;49.900;10.774;2023-04-08T13:49:27;8.60;99.90
39503;DHT22;26970;49.900;10.774;2023-04-08T13:51:53;8.70;99.90
39503;DHT22;26970;49.900;10.774;2023-04-08T13:54:18;8.70;99.90
39503;DHT22;26970;49.900;10.774;2023-04-08T13:56:44;8.70;99.90
39503;DHT22;26970;49.900;10.774;2023-04-08T13:59:09;8.60;99.90
39503;DHT22;26970;49.900;10.774;2023-04-08T14:01:35;8.50;99.90
39503;DHT22;26970;49.900;10.774;2023-04-08T14:04:01;8.40;99.90
39503;DHT22;26970;49.900;10.774;2023-04-08T14:06:26;8.40;99.90
39503;DHT22;26970;49.900;10.774;2023-04-08T14:08:52;8.30;99.90
39503;DHT22;26970;49.900;10.774;2023-04-08T14:11:18;8.20;99.90
39503;DHT22;26970;49.900;10.774;2023-04-08T14:13:43;8.10;99.90
39503;DHT22;26970;49.900;10.774;2023-04-08T14:16:09;8.10;99.90
39503;DHT22;26970;49.900;10.774;2023-04-08T14:18:34;8.20;99.90
39503;DHT22;26970;49.900;10.774;2023-04-08T14:21:00;8.10;99.90
39503;DHT22;26970;49.900;10.774;2023-04-08T14:23:26;8.00;99.90
39503;DHT22;26970;49.900;10.774;2023-04-08T14:25:52;7.80;99.90
39503;DHT22;26970;49.900;10.774;2023-04-08T14:28:18;7.70;99.90
39503;DHT22;26970;49.900;10.774;2023-04-08T14:30:43;7.70;99.90
39503;DHT22;26970;49.900;10.774;2023-04-08T14:33:09;7.60;99.90
39503;DHT22;26970;49.900;10.774;2023-04-08T14:35:34;7.60;99.90
39503;DHT22;26970;49.900;10.774;2023-04-08T14:38:01;7.60;99.90
39503;DHT22;26970;49.900;10.774;2023-04-08T14:40:26;7.60;99.90
39503;DHT22;26970;49.900;10.774;2023-04-08T14:42:52;7.60;99.90
39503;DHT22;26970;49.900;10.774;2023-04-08T14:45:18;7.70;99.90
39503;DHT22;26970;49.900;10.774;2023-04-08T14:47:44;7.60;99.90
39503;DHT22;26970;49.900;10.774;2023-04-08T14:50:10;7.70;99.90
39503;DHT22;26970;49.900;10.774;2023-04-08T14:52:36;7.60;99.90
39503;DHT22;26970;49.900;10.774;2023-04-08T14:55:01;7.60;99.90
39503;DHT22;26970;49.900;10.774;2023-04-08T14:57:27;7.60;99.90
39503;DHT22;26970;49.900;10.774;2023-04-08T14:59:53;7.70;99.90
39503;DHT22;26970;49.900;10.774;2023-04-08T15:02:18;7.70;99.90
39503;DHT22;26970;49.900;10.774;2023-04-08T15:04:44;7.80;99.90
39503;DHT22;26970;49.900;10.774;2023-04-08T15:07:09;7.80;99.90
39503;DHT22;26970;49.900;10.774;2023-04-08T15:09:35;7.80;99.90
39503;DHT22;26970;49.900;10.774;2023-04-08T15:12:00;7.80;99.90
39503;DHT22;26970;49.900;10.774;2023-04-08T15:14:26;7.70;99.90
39503;DHT22;26970;49.900;10.774;2023-04-08T15:16:52;7.70;99.90
39503;DHT22;26970;49.900;10.774;2023-04-08T15:19:17;7.70;99.90
39503;DHT22;26970;49.900;10.774;2023-04-08T15:21:44;7.70;99.90
39503;DHT22;26970;49.900;10.774;2023-04-08T15:24:10;7.70;99.90
39503;DHT22;26970;49.900;10.774;2023-04-08T15:26:35;7.80;99.90
39503;DHT22;26970;49.900;10.774;2023-04-08T15:29:01;7.80;99.90
39503;DHT22;26970;49.900;10.774;2023-04-08T15:31:29;7.90;99.90
39503;DHT22;26970;49.900;10.774;2023-04-08T15:33:54;8.00;99.90
39503;DHT22;26970;49.900;10.774;2023-04-08T15:36:20;8.10;99.90
39503;DHT22;26970;49.900;10.774;2023-04-08T15:38:46;8.10;99.90
39503;DHT22;26970;49.900;10.774;2023-04-08T15:41:16;8.20;99.90
39503;DHT22;26970;49.900;10.774;2023-04-08T15:43:46;8.30;99.90
39503;DHT22;26970;49.900;10.774;2023-04-08T15:46:19;8.50;99.90
39503;DHT22;26970;49.900;10.774;2023-04-08T15:48:45;8.30;99.90
39503;DHT22;26970;49.900;10.774;2023-04-08T15:51:11;8.20;99.90
39503;DHT22;26970;49.900;10.774;2023-04-08T15:53:38;8.20;99.90
39503;DHT22;26970;49.900;10.774;2023-04-08T15:56:04;8.40;99.90